createdAt,value
2023-02-26T00:01:39.020Z,98915.91
2023-02-26T00:04:13.877Z,98911.78
2023-02-26T00:06:56.850Z,98924.63
2023-02-26T00:09:31.262Z,98921.88
2023-02-26T00:12:01.870Z,98923.91
2023-02-26T00:14:31.997Z,98907.38
2023-02-26T00:17:29.094Z,98916.16
2023-02-26T00:20:02.762Z,98917.41
2023-02-26T00:22:33.596Z,98922.34
2023-02-26T00:25:01.117Z,98921.53
2023-02-26T00:27:30.264Z,98925.88
2023-02-26T00:30:05.301Z,98921.47
2023-02-26T00:32:36.268Z,98933.94
2023-02-26T00:35:12.055Z,98931.91
2023-02-26T00:38:05.906Z,98935.13
2023-02-26T00:40:50.239Z,98927.25
2023-02-26T00:43:22.670Z,98931.22
2023-02-26T00:45:59.438Z,98921.91
2023-02-26T00:48:40.980Z,98914.28
2023-02-26T00:51:36.654Z,98918.34
2023-02-26T00:54:23.974Z,98909.19
2023-02-26T00:56:58.997Z,98917.19
2023-02-26T00:59:31.708Z,98909.91
2023-02-26T01:02:02.160Z,98914.28
2023-02-26T01:04:32.800Z,98911.13
2023-02-26T01:07:09.041Z,98906.66
2023-02-26T01:09:42.223Z,98902.97
2023-02-26T01:12:13.990Z,98908.25
2023-02-26T01:14:52.353Z,98901.03
2023-02-26T01:17:33.861Z,98896.66
2023-02-26T01:20:16.765Z,98892.63
2023-02-26T01:22:54.620Z,98889.66
2023-02-26T01:25:37.500Z,98894.53
2023-02-26T01:28:09.611Z,98892.13
2023-02-26T01:30:37.674Z,98889.81
2023-02-26T01:33:10.073Z,98891.66
2023-02-26T01:35:48.863Z,98891.69
2023-02-26T01:38:40.973Z,98896.16
2023-02-26T01:41:33.226Z,98894.53
2023-02-26T01:44:23.063Z,98900.81
2023-02-26T01:46:50.815Z,98899.34
2023-02-26T01:49:19.240Z,98894.75
2023-02-26T01:51:53.079Z,98888.75
2023-02-26T01:54:33.006Z,98898.13
2023-02-26T01:57:12.472Z,98892.84
2023-02-26T01:59:44.164Z,98886.41
2023-02-26T02:02:19.085Z,98875.44
2023-02-26T02:04:51.053Z,98888.38
2023-02-26T02:07:21.494Z,98894.31
2023-02-26T02:09:51.481Z,98889.91
2023-02-26T02:12:48.117Z,98895.09
2023-02-26T02:15:26.094Z,98908.13
2023-02-26T02:18:41.308Z,98902.56
2023-02-26T02:21:36.541Z,98910.00
2023-02-26T02:24:40.247Z,98912.34
2023-02-26T02:27:27.696Z,98908.13
2023-02-26T02:30:22.372Z,98918.22
2023-02-26T02:32:56.705Z,98927.53
2023-02-26T02:35:37.642Z,98950.16
2023-02-26T02:38:13.767Z,98968.75
2023-02-26T02:40:57.008Z,98969.31
2023-02-26T02:43:33.439Z,98969.78
2023-02-26T02:46:12.081Z,98972.38
2023-02-26T02:48:48.362Z,98973.72
2023-02-26T02:51:32.845Z,98986.97
2023-02-26T02:54:08.533Z,99004.66
2023-02-26T02:57:10.968Z,98996.53
2023-02-26T02:59:54.289Z,98998.97
2023-02-26T03:02:31.091Z,99015.50
2023-02-26T03:05:04.289Z,99019.22
2023-02-26T03:07:36.444Z,99049.03
2023-02-26T03:10:10.168Z,99052.63
2023-02-26T03:12:43.881Z,99043.38
2023-02-26T03:15:16.391Z,99029.28
2023-02-26T03:18:24.596Z,99041.91
2023-02-26T03:21:18.031Z,99049.63
2023-02-26T03:24:11.936Z,99051.31
2023-02-26T03:26:43.538Z,99049.19
2023-02-26T03:29:33.428Z,99050.34
2023-02-26T03:32:09.520Z,99058.34
2023-02-26T03:35:04.789Z,99044.53
2023-02-26T03:37:42.319Z,99059.59
2023-02-26T03:40:17.862Z,99054.75
2023-02-26T03:43:04.669Z,99052.09
2023-02-26T03:45:35.719Z,99066.19
2023-02-26T03:48:12.949Z,99065.88
2023-02-26T03:50:49.007Z,99069.81
2023-02-26T03:53:37.392Z,99077.47
2023-02-26T03:56:27.358Z,99092.06
2023-02-26T03:59:08.322Z,99101.00
2023-02-26T04:02:06.842Z,99102.84
2023-02-26T04:04:53.252Z,99106.75
2023-02-26T04:07:30.600Z,99103.19
2023-02-26T04:09:59.208Z,99107.03
2023-02-26T04:12:33.496Z,99105.78
2023-02-26T04:15:10.035Z,99107.38
2023-02-26T04:17:43.072Z,99111.81
2023-02-26T04:20:13.506Z,99111.28
2023-02-26T04:22:40.949Z,99118.47
2023-02-26T04:25:08.507Z,99116.16
2023-02-26T04:27:42.000Z,99115.50
2023-02-26T04:30:13.635Z,99111.47
2023-02-26T04:32:44.218Z,99105.06
2023-02-26T04:35:20.746Z,99113.19
2023-02-26T04:37:53.594Z,99125.28
2023-02-26T04:40:26.330Z,99120.09
2023-02-26T04:42:59.522Z,99113.50
2023-02-26T04:45:40.653Z,99116.63
2023-02-26T04:48:15.903Z,99117.84
2023-02-26T04:50:46.341Z,99120.78
2023-02-26T04:53:19.157Z,99118.78
2023-02-26T04:55:52.507Z,99121.19
2023-02-26T04:58:23.480Z,99117.19
2023-02-26T05:01:03.480Z,99123.19
2023-02-26T05:03:35.852Z,99124.28
2023-02-26T05:06:11.701Z,99117.19
2023-02-26T05:08:45.192Z,99124.13
2023-02-26T05:11:15.141Z,99106.19
2023-02-26T05:13:47.961Z,99118.78
2023-02-26T05:16:17.754Z,99125.69
2023-02-26T05:18:48.460Z,99134.88
2023-02-26T05:21:23.078Z,99140.03
2023-02-26T05:23:57.293Z,99144.78
2023-02-26T05:26:28.058Z,99144.00
2023-02-26T05:29:04.887Z,99135.22
2023-02-26T05:31:39.419Z,99148.56
2023-02-26T05:34:17.389Z,99141.84
2023-02-26T05:36:46.444Z,99145.47
2023-02-26T05:39:16.655Z,99153.06
2023-02-26T05:41:50.076Z,99148.72
2023-02-26T05:44:20.463Z,99145.75
2023-02-26T05:46:53.832Z,99139.59
2023-02-26T05:49:27.146Z,99136.06
2023-02-26T05:52:00.030Z,99126.47
2023-02-26T05:54:30.337Z,99116.13
2023-02-26T05:57:06.244Z,99136.13
2023-02-26T05:59:38.683Z,99142.59
2023-02-26T06:02:08.975Z,99155.44
2023-02-26T06:04:41.374Z,99148.88
2023-02-26T06:07:13.397Z,99156.22
2023-02-26T06:09:48.198Z,99170.47
2023-02-26T06:12:21.456Z,99163.50
2023-02-26T06:14:52.444Z,99166.06
2023-02-26T06:17:27.175Z,99180.50
2023-02-26T06:20:00.809Z,99191.19
2023-02-26T06:22:34.134Z,99197.78
2023-02-26T06:25:05.259Z,99222.75
2023-02-26T06:27:41.043Z,99211.91
2023-02-26T06:30:11.896Z,99224.66
2023-02-26T06:32:39.355Z,99207.16
2023-02-26T06:35:10.385Z,99216.31
2023-02-26T06:37:38.804Z,99212.94
2023-02-26T06:40:10.963Z,99211.91
2023-02-26T06:42:43.685Z,99222.44
2023-02-26T06:45:19.260Z,99221.13
2023-02-26T06:47:49.441Z,99223.31
2023-02-26T06:50:21.478Z,99224.88
2023-02-26T06:52:54.672Z,99234.38
2023-02-26T06:55:27.898Z,99236.50
2023-02-26T06:58:00.732Z,99250.22
2023-02-26T07:00:38.027Z,99255.59
2023-02-26T07:03:16.219Z,99265.91
2023-02-26T07:05:45.289Z,99266.00
2023-02-26T07:08:16.322Z,99268.16
2023-02-26T07:10:49.442Z,99273.91
2023-02-26T07:13:25.780Z,99285.66
2023-02-26T07:15:55.951Z,99291.41
2023-02-26T07:18:31.061Z,99307.34
2023-02-26T07:21:01.920Z,99316.69
2023-02-26T07:23:35.742Z,99317.25
2023-02-26T07:26:11.233Z,99319.78
2023-02-26T07:28:41.479Z,99315.00
2023-02-26T07:31:15.012Z,99308.91
2023-02-26T07:33:49.802Z,99324.81
2023-02-26T07:36:19.843Z,99349.28
2023-02-26T07:38:47.712Z,99349.41
2023-02-26T07:41:23.757Z,99359.19
2023-02-26T07:43:54.760Z,99383.84
2023-02-26T07:46:27.849Z,99384.47
2023-02-26T07:48:57.548Z,99392.00
2023-02-26T07:51:33.331Z,99400.41
2023-02-26T07:54:03.540Z,99400.53
2023-02-26T07:56:33.509Z,99406.28
2023-02-26T07:59:08.696Z,99426.44
2023-02-26T08:01:44.992Z,99437.66
2023-02-26T08:04:17.808Z,99440.63
2023-02-26T08:06:50.248Z,99426.88
2023-02-26T08:09:20.753Z,99438.78
2023-02-26T08:11:59.721Z,99449.69
2023-02-26T08:14:29.993Z,99450.19
2023-02-26T08:17:02.666Z,99452.56
2023-02-26T08:19:33.718Z,99469.25
2023-02-26T08:22:07.267Z,99475.66
2023-02-26T08:24:37.655Z,99475.69
2023-02-26T08:27:11.745Z,99492.63
2023-02-26T08:29:40.771Z,99481.84
2023-02-26T08:32:15.738Z,99488.31
2023-02-26T08:34:45.654Z,99497.19
2023-02-26T08:37:18.372Z,99491.56
2023-02-26T08:39:53.520Z,99479.41
2023-02-26T08:42:24.914Z,99493.38
2023-02-26T08:44:53.161Z,99496.94
2023-02-26T08:47:28.965Z,99501.03
2023-02-26T08:50:03.289Z,99497.09
2023-02-26T08:52:34.054Z,99501.13
2023-02-26T08:55:03.638Z,99492.69
2023-02-26T08:57:33.840Z,99503.59
2023-02-26T09:00:01.136Z,99511.59
2023-02-26T09:02:33.635Z,99512.31
2023-02-26T09:05:03.348Z,99502.19
2023-02-26T09:07:37.988Z,99516.25
2023-02-26T09:10:12.315Z,99518.78
2023-02-26T09:12:48.104Z,99522.81
2023-02-26T09:15:21.378Z,99504.81
2023-02-26T09:17:52.390Z,99528.09
2023-02-26T09:20:25.155Z,99523.25
2023-02-26T09:22:55.439Z,99537.75
2023-02-26T09:25:26.206Z,99534.00
2023-02-26T09:27:59.061Z,99536.81
2023-02-26T09:30:32.492Z,99541.63
2023-02-26T09:33:02.621Z,99535.19
2023-02-26T09:35:32.961Z,99549.28
2023-02-26T09:38:00.868Z,99538.06
2023-02-26T09:40:48.191Z,99537.66
2023-02-26T09:43:34.761Z,99549.75
2023-02-26T09:46:19.069Z,99545.75
2023-02-26T09:48:55.256Z,99551.34
2023-02-26T09:51:28.898Z,99550.50
2023-02-26T09:54:01.029Z,99539.13
2023-02-26T09:56:36.819Z,99541.59
2023-02-26T09:59:10.070Z,99541.63
2023-02-26T10:01:47.335Z,99553.38
2023-02-26T10:04:27.985Z,99553.78
2023-02-26T10:07:15.325Z,99552.59
2023-02-26T10:10:04.122Z,99558.69
2023-02-26T10:12:36.800Z,99557.44
2023-02-26T10:15:31.368Z,99549.31
2023-02-26T10:18:14.466Z,99544.38
2023-02-26T10:21:29.198Z,99550.34
2023-02-26T10:24:12.154Z,99548.47
2023-02-26T10:26:51.017Z,99549.28
2023-02-26T10:29:40.161Z,99564.66
2023-02-26T10:32:28.420Z,99563.88
2023-02-26T10:35:26.051Z,99561.09
2023-02-26T10:38:05.135Z,99559.47
2023-02-26T10:40:52.051Z,99563.81
2023-02-26T10:43:27.136Z,99557.28
2023-02-26T10:46:13.115Z,99563.31
2023-02-26T10:49:01.472Z,99560.94
2023-02-26T10:51:35.936Z,99560.19
2023-02-26T10:54:37.044Z,99565.44
2023-02-26T10:57:14.790Z,99558.66
2023-02-26T10:59:50.538Z,99567.13
2023-02-26T11:02:53.965Z,99571.94
2023-02-26T11:05:30.082Z,99558.72
2023-02-26T11:08:27.886Z,99581.88
2023-02-26T11:11:05.695Z,99578.56
2023-02-26T11:13:40.987Z,99577.78
2023-02-26T11:16:16.373Z,99580.28
2023-02-26T11:18:55.127Z,99575.91
2023-02-26T11:21:36.126Z,99589.63
2023-02-26T11:24:14.867Z,99591.66
2023-02-26T11:26:48.319Z,99598.13
2023-02-26T11:29:22.138Z,99596.81
2023-02-26T11:31:58.477Z,99600.34
2023-02-26T11:34:29.988Z,99593.50
2023-02-26T11:36:59.986Z,99593.16
2023-02-26T11:39:35.741Z,99595.97
2023-02-26T11:42:10.791Z,99588.81
2023-02-26T11:44:45.834Z,99589.22
2023-02-26T11:47:27.990Z,99598.09
2023-02-26T11:50:10.701Z,99604.16
2023-02-26T11:52:43.270Z,99591.16
2023-02-26T11:55:48.987Z,99585.88
2023-02-26T11:58:28.306Z,99595.00
2023-02-26T12:01:01.584Z,99597.97
2023-02-26T12:03:40.938Z,99602.06
2023-02-26T12:06:24.789Z,99592.03
2023-02-26T12:08:55.367Z,99588.03
2023-02-26T12:11:46.703Z,99587.63
2023-02-26T12:14:51.504Z,99590.38
2023-02-26T12:17:37.235Z,99597.56
2023-02-26T12:20:20.928Z,99594.34
2023-02-26T12:23:06.539Z,99598.34
2023-02-26T12:26:00.237Z,99593.53
2023-02-26T12:29:05.797Z,99600.81
2023-02-26T12:32:04.946Z,99606.50
2023-02-26T12:35:05.215Z,99602.91
2023-02-26T12:38:04.963Z,99606.09
2023-02-26T12:40:35.189Z,99606.00
2023-02-26T12:43:52.191Z,99613.16
2023-02-26T12:46:47.723Z,99603.16
2023-02-26T12:49:44.242Z,99603.63
2023-02-26T12:52:26.609Z,99607.25
2023-02-26T12:55:30.579Z,99606.06
2023-02-26T12:58:05.665Z,99607.72
2023-02-26T13:00:48.015Z,99613.28
2023-02-26T13:03:39.915Z,99612.84
2023-02-26T13:06:32.817Z,99613.16
2023-02-26T13:09:13.518Z,99622.09
2023-02-26T13:11:55.808Z,99624.63
2023-02-26T13:14:53.188Z,99627.09
2023-02-26T13:17:51.738Z,99635.53
2023-02-26T13:20:29.172Z,99636.69
2023-02-26T13:23:14.787Z,99651.88
2023-02-26T13:25:55.265Z,99649.47
2023-02-26T13:28:50.565Z,99646.16
2023-02-26T13:31:36.022Z,99645.84
2023-02-26T13:34:13.856Z,99649.91
2023-02-26T13:36:48.656Z,99649.97
2023-02-26T13:39:25.626Z,99651.59
2023-02-26T13:42:19.269Z,99662.81
2023-02-26T13:45:02.970Z,99659.09
2023-02-26T13:47:48.043Z,99654.31
2023-02-26T13:50:27.287Z,99659.13
2023-02-26T13:53:07.935Z,99665.22
2023-02-26T13:55:47.563Z,99677.28
2023-02-26T13:58:23.996Z,99670.91
2023-02-26T14:01:21.915Z,99669.72
2023-02-26T14:04:06.922Z,99687.41
2023-02-26T14:06:58.012Z,99685.28
2023-02-26T14:09:32.164Z,99676.03
2023-02-26T14:12:22.114Z,99682.47
2023-02-26T14:15:13.610Z,99692.56
2023-02-26T14:17:51.727Z,99686.59
2023-02-26T14:20:28.785Z,99701.88
2023-02-26T14:23:13.826Z,99704.69
2023-02-26T14:25:55.049Z,99702.28
2023-02-26T14:28:28.351Z,99726.75
2023-02-26T14:31:19.789Z,99722.69
2023-02-26T14:34:07.320Z,99721.81
2023-02-26T14:36:57.614Z,99721.50
2023-02-26T14:39:30.720Z,99730.00
2023-02-26T14:42:06.085Z,99730.03
2023-02-26T14:44:43.833Z,99732.06
2023-02-26T14:47:14.893Z,99725.25
2023-02-26T14:49:49.494Z,99734.88
2023-02-26T14:52:27.731Z,99740.84
2023-02-26T14:55:08.130Z,99746.88
2023-02-26T14:57:55.077Z,99763.75
2023-02-26T15:00:46.951Z,99765.78
2023-02-26T15:03:42.131Z,99772.66
2023-02-26T15:06:30.278Z,99773.84
2023-02-26T15:09:16.202Z,99773.06
2023-02-26T15:11:52.415Z,99785.94
2023-02-26T15:14:31.780Z,99801.59
2023-02-26T15:17:07.535Z,99797.56
2023-02-26T15:19:46.535Z,99791.53
2023-02-26T15:22:36.089Z,99796.34
2023-02-26T15:25:28.208Z,99804.38
2023-02-26T15:28:01.812Z,99814.47
2023-02-26T15:30:37.682Z,99818.53
2023-02-26T15:33:19.630Z,99826.53
2023-02-26T15:35:52.024Z,99827.31
2023-02-26T15:38:24.536Z,99833.78
2023-02-26T15:41:03.189Z,99833.75
2023-02-26T15:43:33.855Z,99842.66
2023-02-26T15:46:08.378Z,99843.88
2023-02-26T15:48:43.218Z,99857.53
2023-02-26T15:51:21.627Z,99861.56
2023-02-26T15:53:54.695Z,99863.53
2023-02-26T15:56:29.603Z,99868.78
2023-02-26T15:59:14.869Z,99870.41
2023-02-26T16:01:52.449Z,99880.88
2023-02-26T16:04:26.560Z,99878.44
2023-02-26T16:06:58.396Z,99889.31
2023-02-26T16:09:34.648Z,99902.16
2023-02-26T16:12:27.543Z,99895.31
2023-02-26T16:15:06.384Z,99910.25
2023-02-26T16:17:42.263Z,99902.19
2023-02-26T16:20:21.475Z,99905.78
2023-02-26T16:22:57.109Z,99917.06
2023-02-26T16:25:36.489Z,99917.06
2023-02-26T16:28:24.114Z,99931.56
2023-02-26T16:30:57.599Z,99939.97
2023-02-26T16:33:31.783Z,99946.84
2023-02-26T16:36:17.857Z,99950.84
2023-02-26T16:39:08.869Z,99952.06
2023-02-26T16:41:40.294Z,99960.53
2023-02-26T16:44:29.528Z,99960.56
2023-02-26T16:47:02.485Z,99962.13
2023-02-26T16:49:36.033Z,99967.81
2023-02-26T16:52:05.970Z,99968.16
2023-02-26T16:54:40.890Z,99976.63
2023-02-26T16:57:22.152Z,99986.31
2023-02-26T16:59:56.969Z,99980.22
2023-02-26T17:02:55.903Z,99999.94
2023-02-26T17:05:29.867Z,99995.13
2023-02-26T17:08:14.321Z,100000.38
2023-02-26T17:10:51.782Z,100005.59
2023-02-26T17:13:35.820Z,100014.84
2023-02-26T17:16:14.459Z,100010.41
2023-02-26T17:18:45.374Z,100022.94
2023-02-26T17:21:15.325Z,100021.69
2023-02-26T17:23:48.316Z,100047.06
2023-02-26T17:26:21.662Z,100041.84
2023-02-26T17:28:52.211Z,100049.50
2023-02-26T17:31:25.854Z,100047.09
2023-02-26T17:33:55.773Z,100057.09
2023-02-26T17:36:30.739Z,100059.91
2023-02-26T17:39:06.068Z,100066.31
2023-02-26T17:41:35.623Z,100069.19
2023-02-26T17:44:08.717Z,100084.06
2023-02-26T17:46:42.137Z,100084.47
2023-02-26T17:49:12.548Z,100092.16
2023-02-26T17:51:45.974Z,100093.31
2023-02-26T17:54:21.053Z,100090.88
2023-02-26T17:56:54.121Z,100093.25
2023-02-26T17:59:24.553Z,100102.16
2023-02-26T18:02:03.534Z,100109.38
2023-02-26T18:04:36.749Z,100103.75
2023-02-26T18:07:09.033Z,100107.41
2023-02-26T18:09:40.755Z,100110.59
2023-02-26T18:12:15.703Z,100108.25
2023-02-26T18:14:46.478Z,100113.09
2023-02-26T18:17:21.574Z,100117.47
2023-02-26T18:19:52.791Z,100124.31
2023-02-26T18:22:27.614Z,100126.25
2023-02-26T18:25:00.625Z,100123.06
2023-02-26T18:27:28.810Z,100129.19
2023-02-26T18:30:01.470Z,100130.78
2023-02-26T18:32:36.411Z,100134.41
2023-02-26T18:35:08.773Z,100135.25
2023-02-26T18:37:47.192Z,100139.28
2023-02-26T18:40:22.048Z,100142.50
2023-02-26T18:42:53.104Z,100141.31
2023-02-26T18:45:22.964Z,100144.13
2023-02-26T18:47:54.242Z,100140.09
2023-02-26T18:50:26.970Z,100146.16
2023-02-26T18:52:54.711Z,100149.75
2023-02-26T18:55:30.336Z,100155.00
2023-02-26T18:58:00.515Z,100144.94
2023-02-26T19:00:34.418Z,100159.81
2023-02-26T19:03:09.238Z,100154.09
2023-02-26T19:05:42.688Z,100144.41
2023-02-26T19:08:15.642Z,100148.44
2023-02-26T19:10:45.991Z,100154.13
2023-02-26T19:13:24.015Z,100156.59
2023-02-26T19:15:55.372Z,100171.91
2023-02-26T19:18:25.755Z,100171.50
2023-02-26T19:20:53.622Z,100173.91
2023-02-26T19:23:25.803Z,100175.88
2023-02-26T19:25:56.095Z,100179.53
2023-02-26T19:28:32.011Z,100181.16
2023-02-26T19:31:05.111Z,100192.84
2023-02-26T19:33:39.793Z,100197.25
2023-02-26T19:36:07.578Z,100187.19
2023-02-26T19:38:39.871Z,100194.44
2023-02-26T19:41:10.052Z,100201.66
2023-02-26T19:43:39.803Z,100197.59
2023-02-26T19:46:09.582Z,100213.59
2023-02-26T19:48:42.090Z,100207.19
2023-02-26T19:51:11.619Z,100212.91
2023-02-26T19:53:44.102Z,100207.66
2023-02-26T19:56:17.115Z,100216.84
2023-02-26T19:58:46.696Z,100216.47
2023-02-26T20:01:26.204Z,100222.06
2023-02-26T20:03:56.588Z,100222.00
2023-02-26T20:06:30.617Z,100222.78
2023-02-26T20:09:01.823Z,100232.50
2023-02-26T20:11:35.114Z,100237.84
2023-02-26T20:14:10.257Z,100240.66
2023-02-26T20:16:46.231Z,100247.03
2023-02-26T20:19:21.831Z,100255.16
2023-02-26T20:21:55.898Z,100257.97
2023-02-26T20:24:26.520Z,100257.06
2023-02-26T20:26:58.523Z,100251.78
2023-02-26T20:29:30.693Z,100262.72
2023-02-26T20:32:01.193Z,100267.19
2023-02-26T20:34:29.878Z,100272.38
2023-02-26T20:37:02.689Z,100272.09
2023-02-26T20:39:38.256Z,100267.97
2023-02-26T20:42:07.833Z,100288.97
2023-02-26T20:44:40.358Z,100294.47
2023-02-26T20:47:10.706Z,100301.31
2023-02-26T20:49:41.884Z,100297.00
2023-02-26T20:52:13.876Z,100300.22
2023-02-26T20:54:49.012Z,100318.31
2023-02-26T20:57:21.700Z,100322.31
2023-02-26T20:59:52.802Z,100325.59
2023-02-26T21:02:30.738Z,100329.84
2023-02-26T21:05:01.022Z,100339.50
2023-02-26T21:07:31.298Z,100337.91
2023-02-26T21:10:04.072Z,100341.22
2023-02-26T21:12:37.266Z,100340.34
2023-02-26T21:15:06.742Z,100348.06
2023-02-26T21:17:43.526Z,100346.81
2023-02-26T21:20:12.835Z,100361.25
2023-02-26T21:22:48.610Z,100372.09
2023-02-26T21:25:22.030Z,100367.69
2023-02-26T21:27:51.696Z,100367.63
2023-02-26T21:30:20.519Z,100373.78
2023-02-26T21:32:50.743Z,100377.81
2023-02-26T21:35:25.144Z,100365.25
2023-02-26T21:37:57.588Z,100370.13
2023-02-26T21:40:27.613Z,100370.03
2023-02-26T21:43:03.654Z,100369.59
2023-02-26T21:45:31.724Z,100382.75
2023-02-26T21:48:05.595Z,100379.69
2023-02-26T21:50:38.112Z,100382.59
2023-02-26T21:53:10.902Z,100381.31
2023-02-26T21:55:43.442Z,100380.94
2023-02-26T21:58:16.621Z,100382.97
2023-02-26T22:00:51.529Z,100381.34
2023-02-26T22:03:25.700Z,100375.19
2023-02-26T22:05:58.512Z,100370.75
2023-02-26T22:08:31.682Z,100378.84
2023-02-26T22:11:02.068Z,100383.72
2023-02-26T22:13:40.861Z,100385.34
2023-02-26T22:16:11.980Z,100377.34
2023-02-26T22:18:41.951Z,100383.72
2023-02-26T22:21:14.026Z,100387.06
2023-02-26T22:23:44.868Z,100385.75
2023-02-26T22:26:17.702Z,100382.00
2023-02-26T22:28:47.997Z,100379.75
2023-02-26T22:31:23.352Z,100385.41
2023-02-26T22:33:55.864Z,100395.84
2023-02-26T22:36:27.705Z,100395.84
2023-02-26T22:39:00.853Z,100393.81
2023-02-26T22:41:30.633Z,100401.91
2023-02-26T22:44:06.485Z,100411.88
2023-02-26T22:46:34.337Z,100415.84
2023-02-26T22:49:04.847Z,100416.81
2023-02-26T22:51:33.177Z,100415.88
2023-02-26T22:54:04.076Z,100416.75
2023-02-26T22:56:35.969Z,100426.47
2023-02-26T22:59:08.242Z,100419.94
2023-02-26T23:01:41.189Z,100418.63
2023-02-26T23:04:13.816Z,100427.16
2023-02-26T23:06:46.886Z,100424.00
2023-02-26T23:09:14.396Z,100427.56
2023-02-26T23:11:45.065Z,100427.53
2023-02-26T23:14:20.755Z,100421.50
2023-02-26T23:16:59.273Z,100427.25
2023-02-26T23:19:32.428Z,100419.09
2023-02-26T23:22:06.260Z,100422.28
2023-02-26T23:24:41.244Z,100421.41
2023-02-26T23:27:11.736Z,100428.03
2023-02-26T23:29:45.731Z,100435.19
2023-02-26T23:32:16.800Z,100433.97
2023-02-26T23:34:48.184Z,100422.72
2023-02-26T23:37:28.698Z,100427.19
2023-02-26T23:39:58.589Z,100425.84
2023-02-26T23:42:31.729Z,100427.38
2023-02-26T23:45:04.154Z,100423.88
2023-02-26T23:47:31.385Z,100422.59
2023-02-26T23:50:05.362Z,100421.41
2023-02-26T23:52:34.084Z,100426.25
2023-02-26T23:55:04.361Z,100437.88
2023-02-26T23:57:34.089Z,100433.00
